createdAt,value
2022-08-08T00:02:03.369Z,14.81
2022-08-08T00:06:57.922Z,14.82
2022-08-08T00:12:09.445Z,14.79
2022-08-08T00:17:54.348Z,14.68
2022-08-08T00:22:59.898Z,14.60
2022-08-08T00:28:05.869Z,14.59
2022-08-08T00:34:18.686Z,14.65
2022-08-08T00:41:09.556Z,14.67
2022-08-08T00:44:38.668Z,14.68
2022-08-08T00:50:15.245Z,14.68
2022-08-08T00:55:54.657Z,14.60
2022-08-08T01:01:15.903Z,14.54
2022-08-08T01:07:01.955Z,14.50
2022-08-08T01:12:39.289Z,14.36
2022-08-08T01:18:02.177Z,14.28
2022-08-08T01:24:06.759Z,14.29
2022-08-08T01:29:14.188Z,14.27
2022-08-08T01:34:31.347Z,14.25
2022-08-08T01:39:44.346Z,14.20
2022-08-08T01:45:22.831Z,14.17
2022-08-08T01:50:48.954Z,14.22
2022-08-08T01:56:29.741Z,14.20
2022-08-08T02:01:59.619Z,14.08
2022-08-08T02:07:07.355Z,14.12
2022-08-08T02:12:18.552Z,14.22
2022-08-08T02:17:36.800Z,14.26
2022-08-08T02:23:01.886Z,14.27
2022-08-08T02:28:34.754Z,14.22
2022-08-08T02:34:08.805Z,14.15
2022-08-08T02:39:41.270Z,14.15
2022-08-08T02:44:58.839Z,14.07
2022-08-08T02:50:19.507Z,13.91
2022-08-08T02:55:45.270Z,13.99
2022-08-08T03:01:05.574Z,14.06
2022-08-08T03:06:40.561Z,14.11
2022-08-08T03:12:36.296Z,14.21
2022-08-08T03:18:06.740Z,14.22
2022-08-08T03:23:08.598Z,14.30
2022-08-08T03:28:29.983Z,14.38
2022-08-08T03:33:55.467Z,14.40
2022-08-08T03:39:07.596Z,14.42
2022-08-08T03:44:16.158Z,14.38
2022-08-08T03:49:58.266Z,14.46
2022-08-08T03:55:02.000Z,14.50
2022-08-08T04:00:11.508Z,14.54
2022-08-08T04:05:13.513Z,14.61
2022-08-08T04:10:15.037Z,14.63
2022-08-08T04:15:17.005Z,14.61
2022-08-08T04:20:19.017Z,14.67
2022-08-08T04:25:20.649Z,14.74
2022-08-08T04:30:22.967Z,14.71
2022-08-08T04:35:24.667Z,14.78
2022-08-08T04:40:26.262Z,14.88
2022-08-08T04:45:28.317Z,14.88
2022-08-08T04:50:37.965Z,14.90
2022-08-08T04:55:55.075Z,15.04
2022-08-08T05:00:57.959Z,15.16
2022-08-08T05:06:00.147Z,15.27
2022-08-08T05:11:07.899Z,15.36
2022-08-08T05:16:52.615Z,15.48
2022-08-08T05:21:43.607Z,15.55
2022-08-08T05:26:53.680Z,15.60
2022-08-08T05:32:05.446Z,15.69
2022-08-08T05:37:17.208Z,15.81
2022-08-08T05:42:28.679Z,15.88
2022-08-08T05:47:52.665Z,15.96
2022-08-08T05:52:52.777Z,16.07
2022-08-08T05:58:04.956Z,16.14
2022-08-08T06:03:22.915Z,16.25
2022-08-08T06:08:34.593Z,16.31
2022-08-08T06:13:47.053Z,16.36
2022-08-08T06:18:53.599Z,16.42
2022-08-08T06:24:05.183Z,16.46
2022-08-08T06:29:56.390Z,16.48
2022-08-08T06:35:11.895Z,16.53
2022-08-08T06:40:16.669Z,16.57
2022-08-08T06:45:19.859Z,16.60
2022-08-08T06:50:31.526Z,16.64
2022-08-08T06:55:37.533Z,16.68
2022-08-08T07:00:47.962Z,16.78
2022-08-08T07:06:01.647Z,16.85
2022-08-08T07:11:04.983Z,16.95
2022-08-08T07:16:28.858Z,17.06
2022-08-08T07:21:59.143Z,17.16
2022-08-08T07:27:06.130Z,17.29
2022-08-08T07:32:10.792Z,17.43
2022-08-08T07:37:18.448Z,17.60
2022-08-08T07:42:25.895Z,17.85
2022-08-08T07:47:39.330Z,18.06
2022-08-08T07:52:50.174Z,18.26
2022-08-08T07:58:08.360Z,18.34
2022-08-08T08:03:23.411Z,18.45
2022-08-08T08:08:32.721Z,18.56
2022-08-08T08:14:08.403Z,18.93
2022-08-08T08:19:14.804Z,19.42
2022-08-08T08:24:18.735Z,19.52
2022-08-08T08:29:20.414Z,19.47
2022-08-08T08:34:22.710Z,19.37
2022-08-08T08:39:24.813Z,19.27
2022-08-08T08:44:47.157Z,19.20
2022-08-08T08:49:50.089Z,19.30
2022-08-08T08:54:55.885Z,19.16
2022-08-08T09:00:04.814Z,19.18
2022-08-08T09:05:13.935Z,19.30
2022-08-08T09:10:33.110Z,19.50
2022-08-08T09:15:41.602Z,19.69
2022-08-08T09:22:00.705Z,19.74
2022-08-08T09:26:24.730Z,19.82
2022-08-08T09:31:42.547Z,19.93
2022-08-08T09:37:37.344Z,19.99
2022-08-08T09:42:44.302Z,20.18
2022-08-08T09:48:12.646Z,20.53
2022-08-08T09:53:24.895Z,20.97
2022-08-08T09:58:52.261Z,21.28
2022-08-08T10:04:02.175Z,21.48
2022-08-08T10:09:08.606Z,21.34
2022-08-08T10:14:27.549Z,21.12
2022-08-08T10:19:57.254Z,21.19
2022-08-08T10:25:15.673Z,21.55
2022-08-08T10:31:00.080Z,24.26
2022-08-08T10:36:08.127Z,25.34
2022-08-08T10:41:05.250Z,26.62
2022-08-08T10:46:29.661Z,26.80
2022-08-08T10:51:41.204Z,27.05
2022-08-08T10:56:58.315Z,25.78
2022-08-08T11:02:01.378Z,24.73
2022-08-08T11:07:07.189Z,23.83
2022-08-08T11:12:13.958Z,23.47
2022-08-08T11:18:00.335Z,23.11
2022-08-08T11:22:43.829Z,22.95
2022-08-08T11:27:47.255Z,22.71
2022-08-08T11:32:56.370Z,22.64
2022-08-08T11:38:39.664Z,22.45
2022-08-08T11:43:21.724Z,22.50
2022-08-08T11:48:27.820Z,22.54
2022-08-08T11:53:30.452Z,22.48
2022-08-08T11:58:44.736Z,22.73
2022-08-08T12:03:59.332Z,22.65
2022-08-08T12:09:09.110Z,22.35
2022-08-08T12:14:12.074Z,22.31
2022-08-08T12:19:13.753Z,22.45
2022-08-08T12:24:27.950Z,22.52
2022-08-08T12:29:40.013Z,22.65
2022-08-08T12:34:43.990Z,22.74
2022-08-08T12:40:00.701Z,22.76
2022-08-08T12:45:53.615Z,22.72
2022-08-08T12:50:46.883Z,22.66
2022-08-08T12:56:18.754Z,22.58
2022-08-08T13:01:24.798Z,22.40
2022-08-08T13:06:36.862Z,22.52
2022-08-08T13:12:18.063Z,22.42
2022-08-08T13:17:00.457Z,22.21
2022-08-08T13:22:04.914Z,22.42
2022-08-08T13:27:20.699Z,22.38
2022-08-08T13:32:25.369Z,22.28
2022-08-08T13:38:04.619Z,22.31
2022-08-08T13:42:50.486Z,22.11
2022-08-08T13:48:01.996Z,22.17
2022-08-08T13:53:23.121Z,22.20
2022-08-08T13:58:28.927Z,22.17
2022-08-08T14:03:53.285Z,22.11
2022-08-08T14:08:52.470Z,22.00
2022-08-08T14:14:02.348Z,22.07
2022-08-08T14:19:09.448Z,22.08
2022-08-08T14:24:13.347Z,21.98
2022-08-08T14:29:27.977Z,21.95
2022-08-08T14:34:32.442Z,21.97
2022-08-08T14:39:48.247Z,21.87
2022-08-08T14:45:00.336Z,21.78
2022-08-08T14:50:14.214Z,21.76
2022-08-08T14:55:22.586Z,21.63
2022-08-08T15:00:37.580Z,21.64
2022-08-08T15:05:52.177Z,21.53
2022-08-08T15:10:56.378Z,21.45
2022-08-08T15:16:03.321Z,21.46
2022-08-08T15:21:07.159Z,21.30
2022-08-08T15:26:13.047Z,21.19
2022-08-08T15:31:25.707Z,21.20
2022-08-08T15:36:37.187Z,21.13
2022-08-08T15:41:43.567Z,21.19
2022-08-08T15:46:50.953Z,21.14
2022-08-08T15:51:54.579Z,21.20
2022-08-08T15:56:56.374Z,21.21
2022-08-08T16:01:59.958Z,21.20
2022-08-08T16:07:03.534Z,21.15
2022-08-08T16:13:09.627Z,21.04
2022-08-08T16:17:57.979Z,20.97
2022-08-08T16:22:52.243Z,20.98
2022-08-08T16:27:57.121Z,21.01
2022-08-08T16:33:01.591Z,20.97
2022-08-08T16:38:03.187Z,20.92
2022-08-08T16:43:05.839Z,20.86
2022-08-08T16:48:07.376Z,20.83
2022-08-08T16:55:06.176Z,20.78
2022-08-08T16:58:36.363Z,20.69
2022-08-08T17:03:59.858Z,20.60
2022-08-08T17:08:59.584Z,20.63
2022-08-08T17:14:02.056Z,20.57
2022-08-08T17:19:03.680Z,20.54
2022-08-08T17:24:21.998Z,20.52
2022-08-08T17:29:28.484Z,20.50
2022-08-08T17:35:52.958Z,20.42
2022-08-08T17:40:05.646Z,20.37
2022-08-08T17:45:23.155Z,20.33
2022-08-08T17:50:26.192Z,20.29
2022-08-08T17:56:06.309Z,20.27
2022-08-08T18:00:56.223Z,20.22
2022-08-08T18:05:59.031Z,20.21
2022-08-08T18:11:17.302Z,20.11
2022-08-08T18:16:23.431Z,20.11
2022-08-08T18:21:58.953Z,20.05
2022-08-08T18:26:56.868Z,20.01
2022-08-08T18:31:58.988Z,19.93
2022-08-08T18:37:08.277Z,19.84
2022-08-08T18:42:16.189Z,19.83
2022-08-08T18:47:18.380Z,19.79
2022-08-08T18:52:22.880Z,19.73
2022-08-08T18:57:24.890Z,19.63
2022-08-08T19:02:29.829Z,19.57
2022-08-08T19:07:33.511Z,19.57
2022-08-08T19:12:39.548Z,19.48
2022-08-08T19:17:47.907Z,19.41
2022-08-08T19:22:50.102Z,19.31
2022-08-08T19:27:57.015Z,19.25
2022-08-08T19:33:00.717Z,19.17
2022-08-08T19:38:03.122Z,19.13
2022-08-08T19:43:04.675Z,19.15
2022-08-08T19:48:28.985Z,18.99
2022-08-08T19:53:51.590Z,18.96
2022-08-08T19:58:54.606Z,18.85
2022-08-08T20:04:01.036Z,18.67
2022-08-08T20:09:04.489Z,18.67
2022-08-08T20:14:32.961Z,18.64
2022-08-08T20:19:33.546Z,18.65
2022-08-08T20:24:40.756Z,18.58
2022-08-08T20:29:45.641Z,18.53
2022-08-08T20:35:01.603Z,18.52
2022-08-08T20:40:05.509Z,18.27
2022-08-08T20:45:08.573Z,18.20
2022-08-08T20:50:10.827Z,18.24
2022-08-08T20:55:22.707Z,18.19
2022-08-08T21:00:27.536Z,18.23
2022-08-08T21:05:31.872Z,18.22
2022-08-08T21:10:33.595Z,18.21
2022-08-08T21:16:04.838Z,18.14
2022-08-08T21:20:57.903Z,18.05
2022-08-08T21:25:59.486Z,17.92
2022-08-08T21:31:01.049Z,17.81
2022-08-08T21:36:28.639Z,17.74
2022-08-08T21:41:42.953Z,17.76
2022-08-08T21:48:06.097Z,17.69
2022-08-08T21:54:31.359Z,17.69
2022-08-08T21:57:42.782Z,17.49
2022-08-08T22:02:46.934Z,17.41
2022-08-08T22:07:49.963Z,17.44
2022-08-08T22:12:51.533Z,17.36
2022-08-08T22:17:53.560Z,17.36
2022-08-08T22:22:56.479Z,17.39
2022-08-08T22:29:13.942Z,17.29
2022-08-08T22:34:13.420Z,17.25
2022-08-08T22:38:49.197Z,17.16
2022-08-08T22:44:01.883Z,17.09
2022-08-08T22:49:05.939Z,17.07
2022-08-08T22:54:30.101Z,17.09
2022-08-08T22:59:36.232Z,17.06
2022-08-08T23:04:56.595Z,16.91
2022-08-08T23:10:00.154Z,16.91
2022-08-08T23:15:11.151Z,16.92
2022-08-08T23:20:27.542Z,16.87
2022-08-08T23:25:29.338Z,16.82
2022-08-08T23:30:30.843Z,16.88
2022-08-08T23:35:34.381Z,16.84
2022-08-08T23:40:53.931Z,16.80
2022-08-08T23:49:02.102Z,16.82
2022-08-08T23:51:42.530Z,16.81
2022-08-08T23:56:39.020Z,16.86
